createdAt,value
2017-08-10T00:01:43.004Z,21.03
2017-08-10T00:04:11.103Z,20.77
2017-08-10T00:06:41.472Z,20.00
2017-08-10T00:09:09.858Z,19.40
2017-08-10T00:11:38.913Z,20.30
2017-08-10T00:14:07.256Z,20.00
2017-08-10T00:16:35.483Z,20.57
2017-08-10T00:19:06.327Z,21.97
2017-08-10T00:21:34.496Z,21.97
2017-08-10T00:24:06.447Z,22.07
2017-08-10T00:26:37.402Z,22.87
2017-08-10T00:29:08.360Z,21.63
2017-08-10T00:31:37.542Z,23.30
2017-08-10T00:34:07.641Z,24.00
2017-08-10T00:36:40.563Z,23.37
2017-08-10T00:39:09.089Z,23.53
2017-08-10T00:41:37.279Z,23.13
2017-08-10T00:44:06.818Z,23.10
2017-08-10T00:46:36.366Z,24.57
2017-08-10T00:49:04.369Z,24.00
2017-08-10T00:51:31.978Z,26.10
2017-08-10T00:54:00.288Z,26.50
2017-08-10T00:56:31.513Z,29.70
2017-08-10T00:59:00.278Z,28.60
2017-08-10T01:01:30.181Z,29.57
2017-08-10T01:03:59.140Z,28.67
2017-08-10T01:06:27.558Z,30.37
2017-08-10T01:08:59.134Z,29.17
2017-08-10T01:11:29.792Z,28.63
2017-08-10T01:13:58.410Z,27.73
2017-08-10T01:16:28.500Z,29.17
2017-08-10T01:18:56.578Z,25.80
2017-08-10T01:21:25.374Z,27.87
2017-08-10T01:23:54.028Z,27.50
2017-08-10T01:26:25.980Z,27.60
2017-08-10T01:28:58.820Z,24.23
2017-08-10T01:31:32.266Z,28.90
2017-08-10T01:34:04.209Z,26.90
2017-08-10T01:36:33.718Z,27.40
2017-08-10T01:39:02.179Z,23.20
2017-08-10T01:41:30.416Z,24.03
2017-08-10T01:44:00.085Z,24.10
2017-08-10T01:46:28.224Z,21.50
2017-08-10T01:48:59.831Z,20.60
2017-08-10T01:51:29.482Z,23.27
2017-08-10T01:53:58.016Z,23.30
2017-08-10T01:56:28.909Z,23.93
2017-08-10T01:58:58.742Z,23.87
2017-08-10T02:01:29.456Z,24.00
2017-08-10T02:03:59.185Z,24.70
2017-08-10T02:06:29.701Z,23.23
2017-08-10T02:08:58.478Z,21.70
2017-08-10T02:11:26.072Z,22.97
2017-08-10T02:13:54.390Z,24.50
2017-08-10T02:16:22.132Z,23.23
2017-08-10T02:18:51.111Z,24.90
2017-08-10T02:21:18.956Z,24.20
2017-08-10T02:23:50.359Z,22.80
2017-08-10T02:26:21.573Z,23.90
2017-08-10T02:28:50.129Z,20.17
2017-08-10T02:31:19.251Z,21.20
2017-08-10T02:33:47.574Z,20.90
2017-08-10T02:36:15.210Z,21.57
2017-08-10T02:38:42.877Z,18.93
2017-08-10T02:41:11.182Z,19.10
2017-08-10T02:43:40.265Z,19.50
2017-08-10T02:46:08.000Z,19.00
2017-08-10T02:48:35.624Z,21.53
2017-08-10T02:51:03.227Z,21.33
2017-08-10T02:53:31.696Z,22.07
2017-08-10T02:55:59.551Z,23.40
2017-08-10T02:58:27.637Z,21.00
2017-08-10T03:00:55.586Z,20.77
2017-08-10T03:03:23.320Z,20.90
2017-08-10T03:05:51.472Z,22.30
2017-08-10T03:08:22.462Z,20.93
2017-08-10T03:10:51.809Z,21.83
2017-08-10T03:13:21.463Z,21.40
2017-08-10T03:15:54.263Z,18.47
2017-08-10T03:18:28.716Z,20.90
2017-08-10T03:21:01.257Z,20.63
2017-08-10T03:23:35.023Z,21.80
2017-08-10T03:26:07.571Z,22.60
2017-08-10T03:28:48.522Z,21.33
2017-08-10T03:31:34.367Z,22.37
2017-08-10T03:34:08.259Z,19.53
2017-08-10T03:36:39.284Z,18.37
2017-08-10T03:39:07.562Z,18.67
2017-08-10T03:41:35.284Z,19.43
2017-08-10T03:44:07.442Z,21.90
2017-08-10T03:46:35.088Z,19.87
2017-08-10T03:49:03.423Z,19.23
2017-08-10T03:51:31.170Z,20.63
2017-08-10T03:54:01.099Z,19.80
2017-08-10T03:56:28.706Z,19.10
2017-08-10T03:58:56.649Z,20.90
2017-08-10T04:01:32.615Z,21.60
2017-08-10T04:04:00.917Z,22.63
2017-08-10T04:06:28.873Z,24.67
2017-08-10T04:08:56.528Z,19.67
2017-08-10T04:11:24.767Z,21.67
2017-08-10T04:13:52.423Z,23.20
2017-08-10T04:16:20.020Z,21.30
2017-08-10T04:18:47.627Z,19.37
2017-08-10T04:21:15.226Z,18.10
2017-08-10T04:23:42.826Z,16.60
2017-08-10T04:26:10.464Z,18.60
2017-08-10T04:28:38.145Z,18.90
2017-08-10T04:31:05.754Z,18.27
2017-08-10T04:33:33.372Z,17.57
2017-08-10T04:36:00.992Z,21.30
2017-08-10T04:38:28.591Z,20.20
2017-08-10T04:40:56.243Z,20.57
2017-08-10T04:43:23.843Z,22.43
2017-08-10T04:45:51.433Z,18.33
2017-08-10T04:48:19.048Z,18.40
2017-08-10T04:50:47.018Z,17.83
2017-08-10T04:53:15.324Z,20.97
2017-08-10T04:55:43.941Z,18.47
2017-08-10T04:58:11.537Z,20.03
2017-08-10T05:00:39.430Z,17.60
2017-08-10T05:03:07.061Z,18.67
2017-08-10T05:05:34.684Z,18.37
2017-08-10T05:08:02.291Z,18.20
2017-08-10T05:10:29.998Z,18.27
2017-08-10T05:12:57.605Z,18.03
2017-08-10T05:15:25.383Z,18.13
2017-08-10T05:17:53.068Z,18.20
2017-08-10T05:20:20.690Z,17.47
2017-08-10T05:22:48.304Z,16.73
2017-08-10T05:25:15.915Z,18.43
2017-08-10T05:27:43.687Z,17.50
2017-08-10T05:30:11.312Z,16.70
2017-08-10T05:32:38.940Z,17.97
2017-08-10T05:35:06.556Z,18.43
2017-08-10T05:37:34.176Z,18.87
2017-08-10T05:40:02.579Z,18.57
2017-08-10T05:42:30.190Z,17.63
2017-08-10T05:44:57.815Z,17.43
2017-08-10T05:47:25.463Z,16.53
2017-08-10T05:49:53.069Z,16.83
2017-08-10T05:52:20.678Z,16.03
2017-08-10T05:54:48.325Z,16.10
2017-08-10T05:57:15.991Z,15.20
2017-08-10T05:59:43.605Z,14.13
2017-08-10T06:02:11.303Z,14.57
2017-08-10T06:04:39.293Z,13.03
2017-08-10T06:07:07.421Z,14.20
2017-08-10T06:09:35.077Z,13.10
2017-08-10T06:12:02.700Z,14.40
2017-08-10T06:14:30.303Z,13.17
2017-08-10T06:16:57.927Z,13.27
2017-08-10T06:19:25.507Z,13.70
2017-08-10T06:21:53.105Z,14.00
2017-08-10T06:24:21.478Z,12.77
2017-08-10T06:26:49.093Z,13.30
2017-08-10T06:29:16.692Z,13.20
2017-08-10T06:31:44.350Z,13.90
2017-08-10T06:34:11.957Z,13.10
2017-08-10T06:36:39.677Z,13.03
2017-08-10T06:39:07.310Z,12.60
2017-08-10T06:41:34.913Z,13.13
2017-08-10T06:44:02.510Z,12.10
2017-08-10T06:46:30.157Z,11.57
2017-08-10T06:48:57.797Z,11.13
2017-08-10T06:51:25.399Z,10.13
2017-08-10T06:53:53.814Z,11.00
2017-08-10T06:56:21.463Z,10.40
2017-08-10T06:58:49.094Z,10.50
2017-08-10T07:01:16.730Z,11.57
2017-08-10T07:03:44.354Z,10.90
2017-08-10T07:06:11.953Z,10.47
2017-08-10T07:08:39.572Z,12.17
2017-08-10T07:11:07.161Z,10.77
2017-08-10T07:13:35.792Z,10.80
2017-08-10T07:16:03.432Z,11.57
2017-08-10T07:18:31.017Z,11.03
2017-08-10T07:20:58.622Z,13.07
2017-08-10T07:23:26.243Z,11.03
2017-08-10T07:25:54.201Z,11.87
2017-08-10T07:28:21.788Z,11.60
2017-08-10T07:30:49.388Z,11.50
2017-08-10T07:33:16.991Z,11.90
2017-08-10T07:35:44.602Z,11.87
2017-08-10T07:38:12.356Z,11.40
2017-08-10T07:40:40.030Z,11.70
2017-08-10T07:43:08.515Z,11.93
2017-08-10T07:45:37.124Z,11.83
2017-08-10T07:48:04.725Z,10.30
2017-08-10T07:50:32.343Z,10.30
2017-08-10T07:52:59.969Z,11.33
2017-08-10T07:55:27.585Z,10.47
2017-08-10T07:57:55.195Z,9.87
2017-08-10T08:00:22.825Z,10.37
2017-08-10T08:02:50.404Z,10.43
2017-08-10T08:05:18.802Z,9.80
2017-08-10T08:07:46.454Z,11.77
2017-08-10T08:10:14.116Z,11.60
2017-08-10T08:12:41.736Z,12.00
2017-08-10T08:15:09.821Z,13.70
2017-08-10T08:17:37.674Z,12.80
2017-08-10T08:20:05.475Z,12.60
2017-08-10T08:22:33.187Z,13.20
2017-08-10T08:25:00.875Z,13.90
2017-08-10T08:27:29.460Z,13.20
2017-08-10T08:29:57.563Z,13.47
2017-08-10T08:32:25.289Z,13.93
2017-08-10T08:34:52.899Z,12.60
2017-08-10T08:37:21.669Z,12.50
2017-08-10T08:39:49.372Z,12.37
2017-08-10T08:42:17.015Z,12.20
2017-08-10T08:44:44.642Z,12.60
2017-08-10T08:47:13.035Z,13.10
2017-08-10T08:49:40.833Z,13.27
2017-08-10T08:52:08.460Z,13.90
2017-08-10T08:54:36.110Z,12.17
2017-08-10T08:57:04.625Z,13.07
2017-08-10T08:59:33.725Z,12.67
2017-08-10T09:02:03.112Z,12.40
2017-08-10T09:04:31.189Z,12.90
2017-08-10T09:06:59.627Z,13.17
2017-08-10T09:09:27.568Z,13.17
2017-08-10T09:11:55.495Z,13.50
2017-08-10T09:14:24.808Z,13.30
2017-08-10T09:16:52.745Z,13.60
2017-08-10T09:19:20.839Z,13.40
2017-08-10T09:21:49.627Z,12.33
2017-08-10T09:24:18.391Z,13.10
2017-08-10T09:26:46.626Z,13.40
2017-08-10T09:29:15.407Z,13.03
2017-08-10T09:31:43.787Z,12.50
2017-08-10T09:34:11.814Z,12.70
2017-08-10T09:36:40.012Z,14.40
2017-08-10T09:39:08.632Z,12.73
2017-08-10T09:41:37.748Z,13.47
2017-08-10T09:44:06.759Z,13.10
2017-08-10T09:46:34.916Z,12.27
2017-08-10T09:49:02.886Z,12.20
2017-08-10T09:51:30.909Z,11.10
2017-08-10T09:53:59.697Z,12.07
2017-08-10T09:56:28.625Z,11.30
2017-08-10T09:58:56.909Z,10.77
2017-08-10T10:01:26.442Z,12.80
2017-08-10T10:03:55.929Z,11.50
2017-08-10T10:06:24.650Z,12.00
2017-08-10T10:08:53.486Z,11.90
2017-08-10T10:11:21.626Z,12.27
2017-08-10T10:13:49.365Z,11.10
2017-08-10T10:16:16.948Z,11.70
2017-08-10T10:18:44.554Z,11.77
2017-08-10T10:21:12.192Z,12.83
2017-08-10T10:23:39.785Z,11.80
2017-08-10T10:26:07.811Z,9.97
2017-08-10T10:28:36.281Z,11.40
2017-08-10T10:31:04.837Z,10.87
2017-08-10T10:33:32.550Z,11.20
2017-08-10T10:36:00.228Z,11.30
2017-08-10T10:38:28.951Z,12.60
2017-08-10T10:40:57.063Z,12.43
2017-08-10T10:43:24.909Z,11.90
2017-08-10T10:45:52.531Z,10.67
2017-08-10T10:48:21.250Z,12.50
2017-08-10T10:50:49.002Z,12.10
2017-08-10T10:53:17.941Z,13.17
2017-08-10T10:55:46.084Z,11.50
2017-08-10T10:58:14.372Z,13.90
2017-08-10T11:00:43.312Z,11.97
2017-08-10T11:03:10.976Z,13.20
2017-08-10T11:05:38.645Z,12.60
2017-08-10T11:08:06.276Z,12.97
2017-08-10T11:10:33.931Z,13.57
2017-08-10T11:13:02.430Z,12.27
2017-08-10T11:15:30.300Z,11.40
2017-08-10T11:17:58.038Z,11.93
2017-08-10T11:20:26.440Z,10.80
2017-08-10T11:22:54.186Z,11.37
2017-08-10T11:25:21.775Z,11.20
2017-08-10T11:27:49.469Z,10.50
2017-08-10T11:30:17.801Z,11.13
2017-08-10T11:32:46.266Z,11.40
2017-08-10T11:35:13.899Z,11.40
2017-08-10T11:37:42.055Z,12.60
2017-08-10T11:40:09.899Z,12.40
2017-08-10T11:42:37.586Z,12.50
2017-08-10T11:45:06.003Z,11.70
2017-08-10T11:47:33.612Z,12.53
2017-08-10T11:50:01.251Z,12.00
2017-08-10T11:52:28.881Z,11.50
2017-08-10T11:54:57.231Z,12.47
2017-08-10T11:57:25.610Z,12.20
2017-08-10T11:59:53.414Z,12.37
2017-08-10T12:02:21.856Z,13.10
2017-08-10T12:04:51.859Z,11.60
2017-08-10T12:07:19.527Z,11.90
2017-08-10T12:09:47.147Z,12.30
2017-08-10T12:12:14.814Z,12.50
2017-08-10T12:14:43.551Z,12.33
2017-08-10T12:17:11.166Z,12.07
2017-08-10T12:19:39.119Z,11.70
2017-08-10T12:22:06.762Z,12.53
2017-08-10T12:24:34.653Z,12.57
2017-08-10T12:27:03.165Z,14.20
2017-08-10T12:29:31.595Z,13.70
2017-08-10T12:31:59.188Z,14.20
2017-08-10T12:34:26.832Z,13.07
2017-08-10T12:36:54.597Z,12.83
2017-08-10T12:39:22.203Z,13.27
2017-08-10T12:41:51.079Z,13.73
2017-08-10T12:44:18.891Z,13.03
2017-08-10T12:46:46.594Z,13.83
2017-08-10T12:49:14.225Z,15.10
2017-08-10T12:51:41.868Z,15.00
2017-08-10T12:54:10.235Z,6.20
2017-08-10T12:56:37.880Z,3.73
2017-08-10T12:59:05.488Z,3.23
2017-08-10T13:01:34.126Z,1.50
2017-08-10T13:04:01.805Z,1.33
2017-08-10T13:06:29.389Z,1.10
2017-08-10T13:08:58.081Z,0.90
2017-08-10T13:11:26.727Z,1.03
2017-08-10T13:13:54.339Z,0.80
2017-08-10T13:16:21.971Z,0.80
2017-08-10T13:18:49.620Z,0.80
2017-08-10T13:21:17.274Z,0.80
2017-08-10T13:23:44.879Z,0.87
2017-08-10T13:26:12.514Z,0.77
2017-08-10T13:28:40.146Z,0.80
2017-08-10T13:31:08.533Z,0.70
2017-08-10T13:33:37.917Z,0.60
2017-08-10T13:36:06.676Z,0.70
2017-08-10T13:38:35.308Z,0.80
2017-08-10T13:41:04.556Z,0.60
2017-08-10T13:43:33.119Z,0.63
2017-08-10T13:46:00.955Z,0.70
2017-08-10T13:48:28.620Z,0.70
2017-08-10T13:50:56.438Z,0.70
2017-08-10T13:53:24.249Z,0.80
2017-08-10T13:55:51.884Z,0.70
2017-08-10T13:58:19.512Z,0.80
2017-08-10T14:00:47.887Z,0.80
2017-08-10T14:03:15.572Z,0.80
2017-08-10T14:05:43.990Z,0.80
2017-08-10T14:08:11.673Z,0.90
2017-08-10T14:10:39.297Z,0.80
2017-08-10T14:13:07.710Z,0.70
2017-08-10T14:15:35.621Z,0.70
2017-08-10T14:18:04.058Z,0.70
2017-08-10T14:20:31.650Z,0.80
2017-08-10T14:22:59.569Z,0.60
2017-08-10T14:25:28.012Z,0.60
2017-08-10T14:27:55.674Z,0.93
2017-08-10T14:30:23.296Z,0.60
2017-08-10T14:32:51.672Z,0.73
2017-08-10T14:35:19.292Z,0.60
2017-08-10T14:37:46.933Z,0.70
2017-08-10T14:40:15.267Z,0.60
2017-08-10T14:42:43.717Z,0.83
2017-08-10T14:45:11.380Z,0.80
2017-08-10T14:47:39.513Z,0.80
2017-08-10T14:50:07.154Z,0.90
2017-08-10T14:52:34.770Z,0.87
2017-08-10T14:55:02.405Z,0.90
2017-08-10T14:57:30.804Z,0.80
2017-08-10T14:59:59.190Z,0.80
2017-08-10T15:02:26.898Z,0.80
2017-08-10T15:04:54.490Z,0.80
2017-08-10T15:07:22.931Z,0.73
2017-08-10T15:09:50.676Z,0.63
2017-08-10T15:12:18.257Z,0.80
2017-08-10T15:14:45.864Z,0.90
2017-08-10T15:17:13.492Z,0.70
2017-08-10T15:19:41.070Z,0.93
2017-08-10T15:22:08.713Z,0.80
2017-08-10T15:24:36.336Z,0.80
2017-08-10T15:27:03.975Z,0.80
2017-08-10T15:29:31.592Z,0.97
2017-08-10T15:31:59.231Z,0.90
2017-08-10T15:34:26.904Z,0.90
2017-08-10T15:36:54.574Z,1.07
2017-08-10T15:39:22.203Z,0.90
2017-08-10T15:41:49.818Z,0.90
2017-08-10T15:44:18.201Z,1.10
2017-08-10T15:46:45.845Z,1.10
2017-08-10T15:49:14.370Z,1.43
2017-08-10T15:51:42.104Z,1.40
2017-08-10T15:54:10.680Z,1.20
2017-08-10T15:56:39.187Z,1.30
2017-08-10T15:59:06.928Z,1.07
2017-08-10T16:01:37.361Z,1.20
2017-08-10T16:04:06.117Z,1.70
2017-08-10T16:06:34.416Z,1.10
2017-08-10T16:09:02.178Z,1.50
2017-08-10T16:11:29.863Z,1.47
2017-08-10T16:13:57.540Z,2.33
2017-08-10T16:16:27.226Z,3.00
2017-08-10T16:18:55.110Z,1.40
2017-08-10T16:21:24.644Z,1.93
2017-08-10T16:23:53.633Z,1.50
2017-08-10T16:26:22.140Z,1.60
2017-08-10T16:28:51.380Z,1.10
2017-08-10T16:31:19.454Z,1.37
2017-08-10T16:33:47.077Z,1.20
2017-08-10T16:36:14.671Z,1.13
2017-08-10T16:38:42.350Z,1.40
2017-08-10T16:41:10.127Z,1.10
2017-08-10T16:43:37.731Z,1.27
2017-08-10T16:46:05.381Z,1.20
2017-08-10T16:48:33.016Z,1.30
2017-08-10T16:51:01.386Z,1.40
2017-08-10T16:53:29.807Z,2.93
2017-08-10T16:55:57.432Z,1.97
2017-08-10T16:58:25.849Z,1.63
2017-08-10T17:00:54.513Z,1.73
2017-08-10T17:03:22.885Z,1.50
2017-08-10T17:05:51.311Z,1.90
2017-08-10T17:08:19.922Z,1.97
2017-08-10T17:10:47.556Z,1.83
2017-08-10T17:13:15.170Z,2.00
2017-08-10T17:15:42.796Z,1.90
2017-08-10T17:18:10.835Z,2.03
2017-08-10T17:20:38.448Z,1.93
2017-08-10T17:23:06.108Z,1.30
2017-08-10T17:25:33.734Z,1.43
2017-08-10T17:28:02.156Z,2.27
2017-08-10T17:30:30.800Z,1.50
2017-08-10T17:32:58.428Z,1.10
2017-08-10T17:35:26.065Z,1.20
2017-08-10T17:37:53.707Z,1.30
2017-08-10T17:40:21.361Z,1.37
2017-08-10T17:42:49.052Z,1.20
2017-08-10T17:45:16.772Z,1.10
2017-08-10T17:47:44.368Z,1.00
2017-08-10T17:50:11.986Z,1.10
2017-08-10T17:52:39.621Z,1.00
2017-08-10T17:55:08.560Z,0.90
2017-08-10T17:57:36.211Z,1.07
2017-08-10T18:00:03.922Z,1.00
2017-08-10T18:02:31.619Z,1.40
2017-08-10T18:04:59.246Z,1.10
2017-08-10T18:07:26.876Z,1.10
2017-08-10T18:09:54.531Z,1.10
2017-08-10T18:12:23.014Z,1.00
2017-08-10T18:14:50.665Z,1.00
2017-08-10T18:17:19.411Z,1.30
2017-08-10T18:19:47.152Z,1.13
2017-08-10T18:22:15.363Z,1.20
2017-08-10T18:24:43.050Z,1.00
2017-08-10T18:27:10.654Z,1.20
2017-08-10T18:29:38.268Z,1.10
2017-08-10T18:32:05.837Z,1.00
2017-08-10T18:34:33.446Z,0.90
2017-08-10T18:37:01.978Z,1.10
2017-08-10T18:39:29.624Z,1.00
2017-08-10T18:41:57.277Z,1.00
2017-08-10T18:44:27.024Z,1.20
2017-08-10T18:46:54.632Z,0.90
2017-08-10T18:49:23.010Z,0.90
2017-08-10T18:51:50.631Z,0.80
2017-08-10T18:54:18.273Z,0.90
2017-08-10T18:56:45.907Z,0.87
2017-08-10T18:59:14.306Z,0.90
2017-08-10T19:01:42.683Z,1.00
2017-08-10T19:04:10.303Z,1.03
2017-08-10T19:06:37.946Z,1.07
2017-08-10T19:09:05.566Z,0.90
2017-08-10T19:11:34.121Z,1.00
2017-08-10T19:14:01.794Z,1.00
2017-08-10T19:16:29.407Z,0.80
2017-08-10T19:18:57.869Z,0.93
2017-08-10T19:21:25.512Z,0.87
2017-08-10T19:23:53.203Z,0.97
2017-08-10T19:26:21.019Z,0.70
2017-08-10T19:28:49.284Z,0.90
2017-08-10T19:31:16.958Z,0.90
2017-08-10T19:33:44.543Z,1.00
2017-08-10T19:36:12.327Z,0.93
2017-08-10T19:38:39.948Z,0.80
2017-08-10T19:41:07.541Z,1.00
2017-08-10T19:43:35.825Z,0.90
2017-08-10T19:46:03.679Z,0.80
2017-08-10T19:48:31.700Z,1.20
2017-08-10T19:50:59.435Z,0.80
2017-08-10T19:53:27.486Z,1.10
2017-08-10T19:55:55.127Z,0.87
2017-08-10T19:58:23.109Z,1.10
2017-08-10T20:00:50.928Z,1.10
2017-08-10T20:03:18.594Z,0.80
2017-08-10T20:05:46.333Z,0.80
2017-08-10T20:08:14.088Z,0.70
2017-08-10T20:10:42.137Z,0.80
2017-08-10T20:13:10.075Z,0.90
2017-08-10T20:15:37.692Z,1.00
2017-08-10T20:18:05.337Z,0.80
2017-08-10T20:20:33.660Z,0.80
2017-08-10T20:23:01.642Z,1.00
2017-08-10T20:25:29.252Z,0.97
2017-08-10T20:27:57.161Z,0.90
2017-08-10T20:30:24.979Z,0.90
2017-08-10T20:32:52.606Z,0.80
2017-08-10T20:35:21.279Z,0.90
2017-08-10T20:37:49.764Z,0.90
2017-08-10T20:40:17.523Z,0.83
2017-08-10T20:42:45.382Z,0.80
2017-08-10T20:45:14.022Z,0.83
2017-08-10T20:47:41.837Z,0.70
2017-08-10T20:50:10.421Z,0.93
2017-08-10T20:52:38.197Z,1.10
2017-08-10T20:55:05.872Z,1.00
2017-08-10T20:57:34.428Z,1.00
2017-08-10T21:00:02.187Z,1.10
2017-08-10T21:02:29.781Z,1.10
2017-08-10T21:04:57.447Z,0.90
2017-08-10T21:07:26.342Z,0.93
2017-08-10T21:09:53.968Z,1.10
2017-08-10T21:12:21.759Z,1.13
2017-08-10T21:14:49.674Z,1.37
2017-08-10T21:17:17.343Z,1.20
2017-08-10T21:19:45.423Z,2.50
2017-08-10T21:22:13.128Z,2.00
2017-08-10T21:24:41.561Z,1.70
2017-08-10T21:27:09.250Z,1.20
2017-08-10T21:29:37.749Z,1.63
2017-08-10T21:32:05.424Z,1.10
2017-08-10T21:34:33.067Z,1.50
2017-08-10T21:37:00.718Z,1.30
2017-08-10T21:39:28.396Z,1.50
2017-08-10T21:41:56.776Z,1.47
2017-08-10T21:44:24.491Z,1.40
2017-08-10T21:46:52.147Z,1.13
2017-08-10T21:49:19.866Z,1.40
2017-08-10T21:51:47.532Z,1.10
2017-08-10T21:54:15.224Z,1.40
2017-08-10T21:56:42.885Z,1.40
2017-08-10T21:59:12.390Z,1.30
2017-08-10T22:01:40.856Z,1.53
2017-08-10T22:04:08.844Z,1.50
2017-08-10T22:06:37.253Z,1.30
2017-08-10T22:09:04.875Z,1.37
2017-08-10T22:11:32.503Z,1.17
2017-08-10T22:14:00.125Z,1.20
2017-08-10T22:16:27.712Z,1.13
2017-08-10T22:18:56.077Z,1.13
2017-08-10T22:21:23.675Z,1.30
2017-08-10T22:23:51.384Z,1.60
2017-08-10T22:26:19.160Z,1.00
2017-08-10T22:28:47.546Z,1.23
2017-08-10T22:31:15.138Z,1.20
2017-08-10T22:33:45.198Z,1.20
2017-08-10T22:36:12.822Z,1.60
2017-08-10T22:38:41.191Z,1.53
2017-08-10T22:41:08.794Z,1.20
2017-08-10T22:43:36.399Z,1.60
2017-08-10T22:46:04.028Z,1.40
2017-08-10T22:48:31.660Z,1.80
2017-08-10T22:50:59.235Z,1.63
2017-08-10T22:53:28.087Z,1.40
2017-08-10T22:55:55.752Z,1.60
2017-08-10T22:58:23.389Z,1.70
2017-08-10T23:00:50.972Z,1.80
2017-08-10T23:03:18.614Z,1.40
2017-08-10T23:05:46.235Z,1.43
2017-08-10T23:08:13.830Z,1.53
2017-08-10T23:10:41.418Z,1.50
2017-08-10T23:13:09.059Z,1.30
2017-08-10T23:15:36.677Z,1.50
2017-08-10T23:18:05.998Z,1.50
2017-08-10T23:20:33.585Z,1.50
2017-08-10T23:23:01.184Z,1.50
2017-08-10T23:25:29.551Z,1.70
2017-08-10T23:27:57.922Z,1.70
2017-08-10T23:30:25.529Z,1.70
2017-08-10T23:32:54.303Z,1.60
2017-08-10T23:35:22.122Z,1.50
2017-08-10T23:37:49.990Z,2.33
2017-08-10T23:40:17.661Z,1.90
2017-08-10T23:42:45.284Z,1.60
2017-08-10T23:45:12.876Z,2.20
2017-08-10T23:47:40.527Z,2.20
2017-08-10T23:50:08.141Z,1.70
2017-08-10T23:52:35.738Z,1.70
2017-08-10T23:55:03.351Z,2.20
2017-08-10T23:57:30.963Z,2.87
2017-08-10T23:59:59.328Z,2.00
